createdAt,value
2023-04-15T00:02:28.739Z,8.10
2023-04-15T00:05:14.346Z,8.00
2023-04-15T00:08:01.231Z,8.00
2023-04-15T00:10:46.941Z,8.00
2023-04-15T00:13:32.922Z,7.90
2023-04-15T00:16:18.621Z,8.00
2023-04-15T00:19:03.977Z,8.00
2023-04-15T00:21:49.435Z,7.90
2023-04-15T00:24:34.807Z,7.90
2023-04-15T00:27:20.205Z,7.90
2023-04-15T00:30:06.938Z,8.00
2023-04-15T00:32:52.654Z,7.90
2023-04-15T00:35:38.705Z,7.90
2023-04-15T00:38:24.282Z,7.90
2023-04-15T00:41:11.086Z,7.90
2023-04-15T00:43:56.665Z,7.90
2023-04-15T00:46:43.241Z,7.90
2023-04-15T00:49:29.787Z,7.80
2023-04-15T00:52:15.540Z,7.90
2023-04-15T00:55:01.327Z,7.80
2023-04-15T00:57:47.231Z,7.80
2023-04-15T01:00:32.492Z,7.80
2023-04-15T01:03:18.117Z,7.70
2023-04-15T01:06:04.310Z,7.80
2023-04-15T01:08:50.054Z,7.70
2023-04-15T01:11:35.655Z,7.70
2023-04-15T01:14:21.851Z,7.70
2023-04-15T01:17:07.219Z,7.70
2023-04-15T01:19:53.287Z,7.60
2023-04-15T01:22:39.079Z,7.60
2023-04-15T01:25:34.588Z,7.70
2023-04-15T01:28:20.454Z,7.70
2023-04-15T01:31:13.140Z,7.70
2023-04-15T01:33:59.645Z,7.60
2023-04-15T01:36:45.870Z,7.60
2023-04-15T01:39:31.334Z,7.60
2023-04-15T01:42:17.244Z,7.70
2023-04-15T01:45:03.444Z,7.60
2023-04-15T01:47:49.122Z,7.60
2023-04-15T01:50:35.096Z,7.60
2023-04-15T01:53:20.596Z,7.50
2023-04-15T01:56:06.701Z,7.50
2023-04-15T01:58:52.898Z,7.50
2023-04-15T02:01:38.365Z,7.50
2023-04-15T02:04:23.799Z,7.50
2023-04-15T02:07:09.124Z,7.50
2023-04-15T02:09:55.234Z,7.50
2023-04-15T02:12:40.735Z,7.50
2023-04-15T02:15:26.644Z,7.40
2023-04-15T02:18:11.819Z,7.40
2023-04-15T02:20:57.376Z,7.40
2023-04-15T02:23:43.279Z,7.40
2023-04-15T02:26:28.800Z,7.40
2023-04-15T02:29:14.560Z,7.40
2023-04-15T02:31:59.995Z,7.40
2023-04-15T02:34:45.273Z,7.50
2023-04-15T02:37:30.816Z,7.40
2023-04-15T02:40:16.124Z,7.40
2023-04-15T02:43:01.634Z,7.30
2023-04-15T02:45:47.156Z,7.30
2023-04-15T02:48:32.708Z,7.30
2023-04-15T02:51:21.884Z,7.30
2023-04-15T02:54:07.116Z,7.20
2023-04-15T02:56:52.663Z,7.20
2023-04-15T02:59:38.008Z,7.20
2023-04-15T03:02:23.578Z,7.10
2023-04-15T03:05:14.192Z,7.10
2023-04-15T03:07:59.483Z,7.10
2023-04-15T03:10:45.373Z,7.10
2023-04-15T03:13:30.929Z,7.10
2023-04-15T03:16:16.470Z,7.10
2023-04-15T03:19:02.474Z,7.10
2023-04-15T03:21:48.340Z,7.10
2023-04-15T03:24:33.649Z,7.10
2023-04-15T03:27:19.026Z,7.10
2023-04-15T03:30:04.770Z,7.10
2023-04-15T03:32:50.432Z,7.10
2023-04-15T03:35:35.885Z,7.10
2023-04-15T03:38:21.309Z,7.10
2023-04-15T03:41:06.548Z,7.10
2023-04-15T03:43:51.913Z,7.10
2023-04-15T03:46:37.295Z,7.10
2023-04-15T03:49:22.781Z,7.10
2023-04-15T03:52:08.100Z,7.00
2023-04-15T03:54:53.632Z,7.10
2023-04-15T03:57:38.965Z,7.10
2023-04-15T04:00:24.397Z,7.10
2023-04-15T04:03:10.193Z,7.10
2023-04-15T04:05:55.661Z,7.10
2023-04-15T04:08:41.386Z,7.10
2023-04-15T04:11:27.180Z,7.10
2023-04-15T04:14:12.596Z,7.10
2023-04-15T04:16:57.984Z,7.10
2023-04-15T04:19:43.314Z,7.10
2023-04-15T04:22:28.818Z,7.10
2023-04-15T04:25:14.255Z,7.10
2023-04-15T04:28:00.048Z,7.10
2023-04-15T04:30:45.734Z,7.10
2023-04-15T04:33:31.175Z,7.10
2023-04-15T04:36:16.569Z,7.10
2023-04-15T04:39:02.119Z,7.10
2023-04-15T04:41:48.107Z,7.10
2023-04-15T04:44:33.362Z,7.10
2023-04-15T04:47:18.862Z,7.10
2023-04-15T04:50:04.840Z,7.20
2023-04-15T04:52:50.153Z,7.20
2023-04-15T04:55:35.541Z,7.20
2023-04-15T04:58:20.910Z,7.10
2023-04-15T05:01:06.621Z,7.20
2023-04-15T05:03:52.132Z,7.10
2023-04-15T05:06:37.886Z,7.10
2023-04-15T05:09:23.345Z,7.10
2023-04-15T05:12:09.167Z,7.10
2023-04-15T05:14:54.430Z,7.10
2023-04-15T05:17:39.885Z,7.20
2023-04-15T05:20:25.263Z,7.10
2023-04-15T05:23:10.704Z,7.10
2023-04-15T05:25:55.833Z,7.00
2023-04-15T05:28:41.275Z,7.00
2023-04-15T05:31:26.891Z,6.90
2023-04-15T05:34:12.802Z,6.90
2023-04-15T05:36:58.743Z,6.90
2023-04-15T05:39:44.156Z,6.90
2023-04-15T05:42:29.495Z,6.90
2023-04-15T05:45:15.046Z,7.00
2023-04-15T05:48:00.413Z,7.00
2023-04-15T05:50:45.665Z,7.10
2023-04-15T05:53:31.058Z,7.10
2023-04-15T05:56:16.439Z,7.10
2023-04-15T05:59:01.887Z,7.00
2023-04-15T06:01:47.956Z,7.00
2023-04-15T06:04:33.538Z,7.00
2023-04-15T06:07:19.115Z,7.00
2023-04-15T06:10:05.745Z,7.10
2023-04-15T06:12:53.470Z,7.10
2023-04-15T06:15:39.119Z,7.10
2023-04-15T06:18:24.751Z,7.10
2023-04-15T06:21:10.516Z,7.10
2023-04-15T06:23:56.043Z,7.10
2023-04-15T06:26:41.405Z,7.10
2023-04-15T06:29:26.710Z,7.20
2023-04-15T06:32:12.626Z,7.20
2023-04-15T06:34:57.884Z,7.20
2023-04-15T06:37:43.170Z,7.20
2023-04-15T06:40:28.677Z,7.30
2023-04-15T06:43:13.867Z,7.40
2023-04-15T06:46:00.610Z,7.40
2023-04-15T06:48:46.442Z,7.50
2023-04-15T06:51:31.934Z,7.50
2023-04-15T06:54:17.281Z,7.50
2023-04-15T06:57:02.662Z,7.50
2023-04-15T06:59:48.060Z,7.50
2023-04-15T07:02:34.020Z,7.40
2023-04-15T07:05:19.928Z,7.40
2023-04-15T07:08:05.893Z,7.50
2023-04-15T07:10:51.298Z,7.50
2023-04-15T07:13:36.722Z,7.50
2023-04-15T07:16:22.132Z,7.50
2023-04-15T07:19:07.576Z,7.60
2023-04-15T07:21:53.075Z,7.80
2023-04-15T07:24:38.446Z,7.90
2023-04-15T07:27:24.310Z,8.00
2023-04-15T07:30:10.648Z,8.00
2023-04-15T07:32:55.828Z,7.90
2023-04-15T07:35:41.269Z,7.90
2023-04-15T07:38:26.668Z,7.80
2023-04-15T07:41:12.419Z,7.80
2023-04-15T07:43:57.820Z,7.70
2023-04-15T07:46:43.327Z,7.80
2023-04-15T07:49:29.090Z,7.90
2023-04-15T07:52:14.485Z,7.90
2023-04-15T07:54:59.886Z,7.90
2023-04-15T07:57:45.578Z,7.90
2023-04-15T08:00:30.883Z,7.80
2023-04-15T08:03:16.684Z,7.70
2023-04-15T08:06:02.502Z,7.70
2023-04-15T08:08:47.955Z,7.70
2023-04-15T08:11:33.567Z,7.70
2023-04-15T08:14:19.039Z,7.70
2023-04-15T08:17:04.603Z,7.70
2023-04-15T08:19:49.989Z,7.70
2023-04-15T08:22:35.406Z,7.80
2023-04-15T08:25:20.778Z,7.70
2023-04-15T08:28:06.161Z,7.70
2023-04-15T08:30:53.323Z,7.70
2023-04-15T08:33:38.784Z,7.70
2023-04-15T08:36:24.072Z,7.60
2023-04-15T08:39:09.448Z,7.70
2023-04-15T08:42:12.238Z,7.70
2023-04-15T08:45:00.411Z,7.70
2023-04-15T08:47:48.682Z,7.70
2023-04-15T08:50:35.055Z,7.70
2023-04-15T08:53:20.938Z,7.70
2023-04-15T08:56:09.773Z,7.80
2023-04-15T08:58:56.029Z,7.80
2023-04-15T09:01:42.187Z,7.80
2023-04-15T09:04:28.739Z,7.80
2023-04-15T09:07:14.174Z,7.70
2023-04-15T09:09:59.648Z,7.70
2023-04-15T09:12:45.260Z,7.60
2023-04-15T09:15:31.718Z,7.60
2023-04-15T09:18:32.920Z,7.60
2023-04-15T09:21:18.589Z,7.60
2023-04-15T09:24:04.924Z,7.60
2023-04-15T09:26:54.810Z,7.50
2023-04-15T09:29:42.075Z,7.50
2023-04-15T09:32:27.700Z,7.40
2023-04-15T09:35:14.247Z,7.40
2023-04-15T09:38:10.401Z,7.40
2023-04-15T09:40:56.110Z,7.40
2023-04-15T09:43:41.550Z,7.40
2023-04-15T09:46:44.655Z,7.50
2023-04-15T09:49:30.210Z,7.50
2023-04-15T09:52:16.524Z,7.50
2023-04-15T09:55:01.900Z,7.50
2023-04-15T09:57:47.291Z,7.40
2023-04-15T10:00:33.648Z,7.30
2023-04-15T10:03:32.188Z,7.40
2023-04-15T10:06:18.093Z,7.40
2023-04-15T10:09:03.771Z,7.40
2023-04-15T10:11:50.497Z,7.50
2023-04-15T10:14:38.890Z,7.50
2023-04-15T10:20:17.736Z,7.60
2023-04-15T10:23:03.853Z,7.60
2023-04-15T10:25:54.281Z,7.50
2023-04-15T10:28:39.779Z,7.60
2023-04-15T10:31:25.333Z,7.60
2023-04-15T10:34:11.684Z,7.60
2023-04-15T10:37:02.570Z,7.60
2023-04-15T10:39:48.291Z,7.70
2023-04-15T10:42:36.802Z,7.70
2023-04-15T10:45:22.581Z,7.70
2023-04-15T10:48:08.647Z,7.70
2023-04-15T10:50:58.368Z,7.70
2023-04-15T10:53:43.970Z,7.70
2023-04-15T10:56:30.299Z,7.80
2023-04-15T10:59:16.698Z,7.80
2023-04-15T11:02:15.311Z,7.90
2023-04-15T11:05:00.861Z,7.90
2023-04-15T11:07:53.704Z,7.90
2023-04-15T11:10:39.362Z,7.90
2023-04-15T11:13:26.354Z,7.90
2023-04-15T11:16:12.046Z,7.90
2023-04-15T11:18:57.501Z,7.80
2023-04-15T11:21:42.925Z,7.80
2023-04-15T11:24:28.225Z,7.70
2023-04-15T11:27:23.832Z,7.60
2023-04-15T11:30:28.466Z,7.50
2023-04-15T11:33:14.231Z,7.50
2023-04-15T11:35:59.530Z,7.60
2023-04-15T11:38:47.652Z,7.60
2023-04-15T11:41:33.633Z,7.60
2023-04-15T11:44:19.420Z,7.60
2023-04-15T11:47:24.069Z,7.70
2023-04-15T11:50:23.880Z,7.70
2023-04-15T11:53:13.109Z,7.70
2023-04-15T11:55:58.877Z,7.60
2023-04-15T11:58:44.729Z,7.60
2023-04-15T12:01:39.409Z,7.60
2023-04-15T12:04:25.918Z,7.60
2023-04-15T12:07:11.915Z,7.60
2023-04-15T12:09:57.986Z,7.50
2023-04-15T12:12:43.477Z,7.50
2023-04-15T12:15:28.856Z,7.40
2023-04-15T12:18:19.259Z,7.40
2023-04-15T12:21:12.090Z,7.50
2023-04-15T12:23:58.372Z,7.40
2023-04-15T12:26:53.987Z,7.30
2023-04-15T12:29:43.243Z,7.30
2023-04-15T12:32:28.844Z,7.20
2023-04-15T12:35:14.387Z,7.20
2023-04-15T12:37:59.911Z,7.20
2023-04-15T12:40:47.448Z,7.20
2023-04-15T12:43:33.232Z,7.20
2023-04-15T12:46:19.285Z,7.20
2023-04-15T12:49:04.843Z,7.20
2023-04-15T12:51:56.288Z,7.20
2023-04-15T12:54:41.747Z,7.30
2023-04-15T12:57:27.692Z,7.30
2023-04-15T13:00:14.196Z,7.30
2023-04-15T13:03:00.217Z,7.30
2023-04-15T13:05:45.853Z,7.30
2023-04-15T13:08:32.172Z,7.20
2023-04-15T13:11:17.903Z,7.30
2023-04-15T13:14:06.257Z,7.20
2023-04-15T13:16:52.332Z,7.20
2023-04-15T13:19:38.792Z,7.30
2023-04-15T13:22:24.302Z,7.20
2023-04-15T13:25:10.289Z,7.20
2023-04-15T13:27:58.858Z,7.20
2023-04-15T13:30:44.579Z,7.20
2023-04-15T13:33:30.262Z,7.20
2023-04-15T13:36:15.990Z,7.20
2023-04-15T13:39:01.369Z,7.10
2023-04-15T13:41:47.103Z,7.20
2023-04-15T13:44:32.909Z,7.20
2023-04-15T13:47:20.189Z,7.20
2023-04-15T13:50:11.397Z,7.20
2023-04-15T13:52:56.974Z,7.10
2023-04-15T13:55:43.216Z,7.10
2023-04-15T13:58:29.208Z,7.10
2023-04-15T14:01:14.708Z,7.10
2023-04-15T14:04:00.367Z,7.00
2023-04-15T14:06:46.232Z,7.00
2023-04-15T14:09:31.772Z,7.00
2023-04-15T14:12:17.595Z,7.00
2023-04-15T14:15:03.615Z,7.00
2023-04-15T14:17:49.439Z,7.00
2023-04-15T14:20:34.867Z,6.90
2023-04-15T14:23:20.306Z,7.00
2023-04-15T14:26:05.780Z,7.00
2023-04-15T14:28:51.670Z,7.00
2023-04-15T14:31:38.734Z,7.00
2023-04-15T14:34:26.961Z,7.00
2023-04-15T14:37:12.318Z,7.00
2023-04-15T14:39:57.742Z,7.00
2023-04-15T14:42:43.116Z,6.90
2023-04-15T14:45:28.679Z,7.00
2023-04-15T14:48:14.547Z,7.00
2023-04-15T14:51:00.063Z,6.90
2023-04-15T14:53:46.195Z,7.00
2023-04-15T14:56:31.836Z,6.90
2023-04-15T14:59:17.774Z,6.90
2023-04-15T15:02:03.328Z,6.90
2023-04-15T15:04:49.304Z,7.00
2023-04-15T15:07:35.292Z,7.00
2023-04-15T15:10:32.147Z,7.00
2023-04-15T15:13:26.703Z,7.00
2023-04-15T15:16:14.443Z,7.00
2023-04-15T15:19:00.617Z,7.00
2023-04-15T15:21:46.352Z,7.00
2023-04-15T15:24:31.708Z,7.00
2023-04-15T15:27:17.172Z,7.00
2023-04-15T15:30:07.226Z,7.00
2023-04-15T15:32:53.586Z,6.90
2023-04-15T15:35:39.737Z,6.90
2023-04-15T15:38:25.121Z,6.90
2023-04-15T15:41:10.512Z,6.90
2023-04-15T15:43:56.019Z,6.90
2023-04-15T15:46:42.771Z,6.90
2023-04-15T15:49:28.602Z,6.90
2023-04-15T15:52:14.169Z,6.90
2023-04-15T15:54:59.583Z,6.90
2023-04-15T15:57:45.274Z,6.90
2023-04-15T16:00:31.140Z,6.90
2023-04-15T16:03:16.958Z,6.80
2023-04-15T16:06:04.405Z,6.80
2023-04-15T16:08:49.936Z,6.70
2023-04-15T16:11:35.397Z,6.80
2023-04-15T16:14:21.579Z,6.70
2023-04-15T16:17:07.239Z,6.70
2023-04-15T16:20:00.920Z,6.70
2023-04-15T16:22:47.097Z,6.70
2023-04-15T16:25:35.003Z,6.70
2023-04-15T16:28:26.922Z,6.60
2023-04-15T16:31:12.790Z,6.70
2023-04-15T16:33:58.318Z,6.60
2023-04-15T16:36:43.637Z,6.60
2023-04-15T16:39:29.030Z,6.60
2023-04-15T16:42:14.770Z,6.60
2023-04-15T16:45:00.045Z,6.60
2023-04-15T16:47:45.497Z,6.60
2023-04-15T16:50:31.331Z,6.60
2023-04-15T16:53:17.076Z,6.50
2023-04-15T16:56:05.806Z,6.50
2023-04-15T16:58:51.570Z,6.60
2023-04-15T17:01:38.161Z,6.60
2023-04-15T17:04:24.869Z,6.50
2023-04-15T17:07:10.303Z,6.50
2023-04-15T17:09:55.805Z,6.50
2023-04-15T17:12:41.890Z,6.50
2023-04-15T17:15:27.646Z,6.50
2023-04-15T17:18:13.140Z,6.50
2023-04-15T17:20:58.502Z,6.50
2023-04-15T17:23:43.900Z,6.50
2023-04-15T17:26:29.198Z,6.40
2023-04-15T17:29:14.475Z,6.40
2023-04-15T17:32:01.169Z,6.40
2023-04-15T17:34:50.295Z,6.40
2023-04-15T17:37:37.025Z,6.40
2023-04-15T17:40:26.617Z,6.50
2023-04-15T17:43:12.614Z,6.50
2023-04-15T17:46:01.092Z,6.50
2023-04-15T17:48:57.122Z,6.50
2023-04-15T17:54:57.528Z,6.40
2023-04-15T17:57:46.830Z,6.40
2023-04-15T18:00:32.227Z,6.40
2023-04-15T18:05:56.305Z,6.30
2023-04-15T18:11:24.036Z,6.30
2023-04-15T18:16:49.906Z,6.30
2023-04-15T18:19:36.980Z,6.30
2023-04-15T18:22:26.292Z,6.30
2023-04-15T18:25:12.361Z,6.30
2023-04-15T18:27:58.606Z,6.30
2023-04-15T18:30:44.659Z,6.30
2023-04-15T18:33:30.474Z,6.30
2023-04-15T18:36:16.384Z,6.20
2023-04-15T18:39:02.388Z,6.20
2023-04-15T18:41:48.584Z,6.20
2023-04-15T18:44:34.138Z,6.20
2023-04-15T18:47:20.209Z,6.20
2023-04-15T18:50:08.286Z,6.20
2023-04-15T18:52:53.764Z,6.20
2023-04-15T18:55:40.193Z,6.20
2023-04-15T18:58:27.604Z,6.20
2023-04-15T19:01:33.001Z,6.20
2023-04-15T19:04:18.995Z,6.20
2023-04-15T19:07:04.890Z,6.20
2023-04-15T19:09:50.568Z,6.20
2023-04-15T19:12:36.143Z,6.20
2023-04-15T19:15:21.878Z,6.20
2023-04-15T19:18:07.148Z,6.20
2023-04-15T19:20:53.063Z,6.20
2023-04-15T19:23:39.707Z,6.20
2023-04-15T19:26:25.224Z,6.20
2023-04-15T19:29:10.779Z,6.20
2023-04-15T19:31:56.423Z,6.20
2023-04-15T19:34:42.086Z,6.20
2023-04-15T19:37:27.766Z,6.20
2023-04-15T19:40:13.313Z,6.30
2023-04-15T19:42:58.778Z,6.20
2023-04-15T19:45:44.689Z,6.20
2023-04-15T19:48:30.231Z,6.20
2023-04-15T19:51:16.122Z,6.20
2023-04-15T19:54:01.464Z,6.20
2023-04-15T19:56:46.830Z,6.30
2023-04-15T19:59:32.312Z,6.30
2023-04-15T20:02:17.615Z,6.30
2023-04-15T20:05:04.046Z,6.30
2023-04-15T20:07:49.931Z,6.30
2023-04-15T20:10:37.296Z,6.30
2023-04-15T20:13:22.940Z,6.30
2023-04-15T20:16:08.627Z,6.30
2023-04-15T20:18:54.515Z,6.30
2023-04-15T20:21:39.915Z,6.40
2023-04-15T20:24:25.302Z,6.40
2023-04-15T20:27:10.534Z,6.40
2023-04-15T20:29:56.198Z,6.40
2023-04-15T20:32:41.796Z,6.40
2023-04-15T20:35:27.137Z,6.40
2023-04-15T20:38:12.637Z,6.40
2023-04-15T20:40:57.976Z,6.40
2023-04-15T20:43:43.331Z,6.40
2023-04-15T20:46:28.893Z,6.40
2023-04-15T20:49:14.705Z,6.40
2023-04-15T20:52:00.170Z,6.40
2023-04-15T20:54:45.573Z,6.40
2023-04-15T20:57:30.934Z,6.40
2023-04-15T21:00:19.004Z,6.40
2023-04-15T21:03:05.056Z,6.50
2023-04-15T21:05:51.100Z,6.40
2023-04-15T21:08:36.630Z,6.40
2023-04-15T21:11:43.086Z,6.40
2023-04-15T21:14:27.871Z,6.50
2023-04-15T21:17:13.344Z,6.50
2023-04-15T21:19:58.818Z,6.50
2023-04-15T21:22:44.293Z,6.50
2023-04-15T21:25:29.774Z,6.50
2023-04-15T21:28:15.158Z,6.50
2023-04-15T21:31:00.955Z,6.50
2023-04-15T21:33:47.048Z,6.40
2023-04-15T21:36:32.732Z,6.50
2023-04-15T21:39:18.199Z,6.50
2023-04-15T21:42:03.588Z,6.50
2023-04-15T21:44:49.565Z,6.60
2023-04-15T21:48:07.218Z,6.60
2023-04-15T21:50:40.617Z,6.60
2023-04-15T21:53:26.021Z,6.60
2023-04-15T21:56:11.302Z,6.60
2023-04-15T21:58:57.741Z,6.60
2023-04-15T22:01:43.410Z,6.60
2023-04-15T22:04:28.783Z,6.60
2023-04-15T22:07:14.739Z,6.60
2023-04-15T22:10:00.565Z,6.60
2023-04-15T22:12:46.327Z,6.60
2023-04-15T22:15:31.777Z,6.60
2023-04-15T22:18:17.068Z,6.60
2023-04-15T22:21:02.440Z,6.70
2023-04-15T22:23:52.011Z,6.60
2023-04-15T22:26:38.942Z,6.70
2023-04-15T22:29:27.305Z,6.70
2023-04-15T22:32:13.066Z,6.70
2023-04-15T22:34:58.432Z,6.70
2023-04-15T22:37:43.717Z,6.70
2023-04-15T22:40:29.675Z,6.70
2023-04-15T22:43:14.987Z,6.70
2023-04-15T22:46:01.148Z,6.70
2023-04-15T22:48:46.526Z,6.70
2023-04-15T22:51:32.091Z,6.70
2023-04-15T22:54:17.424Z,6.70
2023-04-15T22:57:03.229Z,6.70
2023-04-15T22:59:48.817Z,6.70
2023-04-15T23:02:35.805Z,6.80
2023-04-15T23:05:21.467Z,6.70
2023-04-15T23:08:08.028Z,6.80
2023-04-15T23:10:53.750Z,6.80
2023-04-15T23:13:39.750Z,6.80
2023-04-15T23:16:25.334Z,6.80
2023-04-15T23:19:11.295Z,6.80
2023-04-15T23:21:57.087Z,6.90
2023-04-15T23:24:42.326Z,6.90
2023-04-15T23:27:27.817Z,6.90
2023-04-15T23:30:13.180Z,6.90
2023-04-15T23:32:58.656Z,6.90
2023-04-15T23:35:44.582Z,6.90
2023-04-15T23:38:30.535Z,6.90
2023-04-15T23:41:16.122Z,6.90
2023-04-15T23:44:01.509Z,6.90
2023-04-15T23:46:46.957Z,6.80
2023-04-15T23:49:32.858Z,6.80
2023-04-15T23:52:18.221Z,6.90
2023-04-15T23:55:04.308Z,6.90
2023-04-15T23:57:49.786Z,6.90
